Time;durP1;ratioP1;P1;durP2;ratioP2;P2;SDS_P1;SDS_P2;PMS_P1;PMS_P2;Temp;Humidity;BMP_temperature;BMP_pressure;BME280_temperature;BME280_humidity;BME280_pressure;Samples;Min_cycle;Max_cycle;Signal;HPM_P1;HPM_P2
2022/10/15 00:00:26;;;;;;;14.02;6.13;;;;;;;9.12;88.30;101246.44;5046110;28;20465;-74
2022/10/15 00:02:51;;;;;;;10.63;5.68;;;;;;;9.18;88.30;101249.19;5050896;28;20028;-75
2022/10/15 00:05:17;;;;;;;8.55;5.07;;;;;;;8.23;88.48;101093.75;5043948;28;20120;-75
2022/10/15 00:07:42;;;;;;;22.98;7.15;;;;;;;9.07;88.76;101233.25;5046066;28;20044;-76
2022/10/15 00:10:08;;;;;;;13.23;4.90;;;;;;;8.51;89.01;101141.44;5031005;28;20046;-76
2022/10/15 00:12:33;;;;;;;9.40;6.07;;;;;;;8.32;89.45;101125.31;5045655;28;20041;-75
2022/10/15 00:14:58;;;;;;;10.57;5.75;;;;;;;8.14;89.46;101096.19;5049067;28;20029;-75
2022/10/15 00:17:24;;;;;;;10.65;5.72;;;;;;;8.71;89.76;101208.13;5039439;28;20041;-74
2022/10/15 00:19:49;;;;;;;16.08;7.18;;;;;;;8.82;90.11;101231.88;5048164;28;20733;-73
2022/10/15 00:22:15;;;;;;;13.35;6.53;;;;;;;8.79;90.27;101229.19;5049943;28;20370;-76
2022/10/15 00:24:40;;;;;;;15.27;6.65;;;;;;;8.45;90.24;101169.22;5047959;28;20412;-76
2022/10/15 00:27:06;;;;;;;11.25;5.30;;;;;;;8.61;90.72;101206.16;5042026;28;20124;-75
2022/10/15 00:29:31;;;;;;;13.13;6.60;;;;;;;8.29;89.93;101122.66;5030998;28;20049;-74
2022/10/15 00:31:57;;;;;;;16.10;7.22;;;;;;;8.58;90.25;101186.03;5041051;28;20219;-76
2022/10/15 00:34:22;;;;;;;10.93;5.63;;;;;;;8.82;89.91;101211.81;5048561;28;20045;-74
2022/10/15 00:36:49;;;;;;;9.57;6.32;;;;;;;7.96;90.05;101083.59;5042493;28;20048;-74
2022/10/15 00:39:15;;;;;;;13.15;6.55;;;;;;;8.66;90.29;101213.25;5048512;28;20045;-74
2022/10/15 00:41:42;;;;;;;8.35;6.20;;;;;;;8.48;90.52;101189.34;5048048;28;20045;-74
2022/10/15 00:44:20;;;;;;;13.00;6.40;;;;;;;8.49;91.13;101219.84;5041230;28;20052;-76
2022/10/15 00:46:53;;;;;;;10.10;5.38;;;;;;;7.95;90.89;101102.75;5045227;28;20142;-75
2022/10/15 00:49:26;;;;;;;9.50;4.43;;;;;;;8.55;91.18;101212.16;5034659;28;20053;-75
2022/10/15 00:51:55;;;;;;;;;;;;;;;8.64;90.28;101208.84;5049122;28;20049;-75
2022/10/15 00:54:22;;;;;;;13.35;6.05;;;;;;;8.58;90.51;101213.94;5048703;28;19917;-75
2022/10/15 00:56:49;;;;;;;13.13;6.25;;;;;;;8.66;89.95;101199.28;5049781;28;20033;-75
2022/10/15 00:59:17;;;;;;;10.07;6.97;;;;;;;8.78;89.68;101207.41;5037863;28;20123;-75
2022/10/15 01:01:43;;;;;;;20.58;7.00;;;;;;;8.54;90.06;101191.19;5047766;28;20041;-75
2022/10/15 01:04:10;;;;;;;17.10;6.72;;;;;;;8.35;90.79;101197.72;5048948;28;20041;-75
2022/10/15 01:06:36;;;;;;;14.05;7.28;;;;;;;7.94;90.53;101095.78;5046906;28;20028;-74
2022/10/15 01:09:04;;;;;;;13.77;6.68;;;;;;;7.69;91.01;101073.44;5046544;28;20029;-75
2022/10/15 01:11:48;;;;;;;11.07;6.28;;;;;;;8.36;90.78;101168.13;5035167;28;20041;-75
2022/10/15 01:14:43;;;;;;;10.30;5.68;;;;;;;8.49;91.23;101214.63;5042148;28;20047;-75
2022/10/15 01:17:44;;;;;;;8.55;5.93;;;;;;;8.60;90.71;101207.00;5042860;28;20061;-77
2022/10/15 01:20:40;;;;;;;8.45;6.30;;;;;;;8.53;90.48;101198.16;5031331;28;20127;-76
2022/10/15 01:23:30;;;;;;;7.70;4.85;;;;;;;8.57;90.08;101214.78;5030145;28;21706;-75
2022/10/15 01:26:05;;;;;;;9.38;6.00;;;;;;;8.44;90.52;101209.28;5049422;28;20066;-74
2022/10/15 01:28:39;;;;;;;10.90;6.40;;;;;;;8.44;90.68;101219.75;5047086;28;20119;-74
2022/10/15 01:31:29;;;;;;;13.90;7.43;;;;;;;8.32;90.94;101214.22;5048472;28;20041;-74
2022/10/15 01:33:58;;;;;;;14.02;6.25;;;;;;;8.36;90.91;101209.97;5048177;28;20067;-76
2022/10/15 01:36:33;;;;;;;15.48;6.93;;;;;;;7.79;90.73;101101.53;5047889;28;20115;-74
2022/10/15 01:39:24;;;;;;;11.93;7.50;;;;;;;8.14;91.32;101185.06;5047059;28;20118;-74
2022/10/15 01:41:56;;;;;;;11.65;6.97;;;;;;;8.19;91.47;101206.94;5038681;28;20061;-74
2022/10/15 01:44:31;;;;;;;13.15;5.90;;;;;;;8.03;91.23;101166.53;5045520;28;20037;-73
2022/10/15 01:46:59;;;;;;;12.38;7.32;;;;;;;8.27;90.47;101196.69;5045028;28;20055;-74
2022/10/15 01:49:29;;;;;;;10.07;5.50;;;;;;;7.95;90.66;101153.28;5047699;28;20075;-73
2022/10/15 01:51:57;;;;;;;10.82;5.75;;;;;;;8.27;90.77;101210.63;5056925;28;20057;-73
2022/10/15 01:54:25;;;;;;;16.98;5.85;;;;;;;8.25;90.25;101202.75;5049821;28;20033;-75
2022/10/15 01:56:53;;;;;;;12.70;6.78;;;;;;;7.98;90.37;101155.97;5047478;28;20029;-75
2022/10/15 01:59:22;;;;;;;17.40;6.80;;;;;;;8.20;90.66;101200.91;5042370;28;20417;-73
2022/10/15 02:01:48;;;;;;;10.63;4.95;;;;;;;7.49;89.87;101076.50;5035075;28;20036;-75
2022/10/15 02:04:22;;;;;;;7.93;5.28;;;;;;;7.81;88.94;101100.72;5046061;28;20128;-75
2022/10/15 02:07:25;;;;;;;22.67;6.45;;;;;;;8.08;89.42;101183.19;5044522;28;20063;-74
2022/10/15 02:10:06;;;;;;;8.52;5.35;;;;;;;8.03;89.00;101167.41;5040213;28;20052;-74
2022/10/15 02:12:44;;;;;;;9.68;5.15;;;;;;;7.45;89.31;101076.38;5045337;28;20033;-75
2022/10/15 02:15:47;;;;;;;11.95;5.70;;;;;;;8.20;89.15;101208.72;5042038;28;20477;-76
2022/10/15 02:18:25;;;;;;;11.23;4.40;;;;;;;7.27;89.31;101042.88;5047053;28;20446;-76
2022/10/15 02:21:04;;;;;;;7.95;5.65;;;;;;;7.52;89.03;101079.16;5045090;28;20037;-76
2022/10/15 02:23:42;;;;;;;11.15;5.60;;;;;;;8.23;89.07;101212.28;5035958;28;20108;-75
2022/10/15 02:26:10;;;;;;;9.60;7.15;;;;;;;8.31;88.67;101214.19;5028487;28;20116;-75
2022/10/15 02:28:39;;;;;;;9.30;5.32;;;;;;;8.15;88.34;101185.09;5010145;28;20061;-74
2022/10/15 02:31:08;;;;;;;6.10;4.03;;;;;;;7.53;87.85;101078.31;5015151;28;20128;-74
2022/10/15 02:33:36;;;;;;;8.88;5.72;;;;;;;7.53;87.67;101070.47;5034338;28;20484;-73
2022/10/15 02:36:01;;;;;;;8.70;4.32;;;;;;;7.95;87.11;101134.09;5046825;28;20035;-75
2022/10/15 02:38:30;;;;;;;8.75;5.50;;;;;;;7.65;86.86;101100.34;5036415;28;20057;-75
2022/10/15 02:40:56;;;;;;;12.30;6.45;;;;;;;7.96;86.84;101151.53;5046391;28;20099;-74
2022/10/15 02:43:24;;;;;;;11.30;6.57;;;;;;;8.27;nan;101179.25;5047728;28;20480;-75
2022/10/15 02:45:50;;;;;;;11.90;5.65;;;;;;;8.31;86.14;101212.47;5040190;28;20073;-74
2022/10/15 02:48:16;;;;;;;12.07;6.05;;;;;;;8.40;85.44;101206.56;5023874;28;20471;-73
2022/10/15 02:50:41;;;;;;;9.48;4.35;;;;;;;7.52;85.25;101070.47;5037476;28;20051;-76
2022/10/15 02:53:13;;;;;;;6.43;4.25;;;;;;;7.43;85.75;101076.34;5046065;28;20049;-75
2022/10/15 02:55:38;;;;;;;8.68;6.07;;;;;;;7.58;85.13;101088.84;5065203;28;20056;-75
2022/10/15 02:58:03;;;;;;;11.38;6.40;;;;;;;7.44;85.22;101066.78;5067541;28;20045;-77
2022/10/15 03:00:29;;;;;;;8.38;5.55;;;;;;;8.08;85.23;101175.34;5048039;28;20833;-75
2022/10/15 03:02:55;;;;;;;9.02;4.97;;;;;;;7.78;84.70;101102.38;5050637;28;20368;-74
2022/10/15 03:05:20;;;;;;;11.77;5.80;;;;;;;8.38;84.60;101208.25;5045611;28;20053;-74
2022/10/15 03:07:46;;;;;;;9.95;4.57;;;;;;;8.35;84.42;101195.09;5044583;28;20067;-75
2022/10/15 03:10:11;;;;;;;8.38;4.88;;;;;;;8.43;83.62;101194.47;5048422;28;20040;-74
2022/10/15 03:12:36;;;;;;;9.90;5.07;;;;;;;8.42;83.59;101210.09;5046661;28;20041;-77
2022/10/15 03:15:02;;;;;;;12.32;5.03;;;;;;;8.49;82.69;101217.25;5043673;28;20113;-76
2022/10/15 03:17:28;;;;;;;15.32;5.22;;;;;;;8.37;82.59;101189.06;5047082;28;20175;-76
2022/10/15 03:19:53;;;;;;;8.50;4.65;;;;;;;7.88;82.65;101096.50;5040288;28;20419;-76
2022/10/15 03:22:18;;;;;;;16.48;5.10;;;;;;;7.61;83.18;101078.50;5043047;28;20457;-76
2022/10/15 03:24:44;;;;;;;12.25;7.03;;;;;;;8.33;83.55;101218.59;5047039;28;20037;-76
2022/10/15 03:27:09;;;;;;;11.18;6.68;;;;;;;8.47;83.68;101212.81;5040304;28;20033;-76
2022/10/15 03:29:35;;;;;;;20.30;10.18;;;;;;;8.32;84.80;101203.78;5016806;28;20057;-75
2022/10/15 03:32:00;;;;;;;11.77;7.30;;;;;;;7.95;84.74;101175.91;5020432;28;20049;-75
2022/10/15 03:34:26;;;;;;;11.13;5.40;;;;;;;8.12;85.40;101207.66;5043746;28;20049;-75
2022/10/15 03:36:51;;;;;;;15.20;7.90;;;;;;;8.04;86.08;101215.34;5028770;28;20086;-75
2022/10/15 03:39:17;;;;;;;14.07;6.03;;;;;;;7.95;85.21;101200.31;5039137;28;20049;-75
2022/10/15 03:41:42;;;;;;;17.02;7.32;;;;;;;7.44;85.00;101113.75;5038801;28;20057;-75
2022/10/15 03:44:09;;;;;;;10.05;7.00;;;;;;;7.29;84.86;101089.06;5027958;28;20573;-75
2022/10/15 03:46:34;;;;;;;9.48;6.65;;;;;;;7.94;84.63;101188.09;5042867;28;20064;-75
2022/10/15 03:49:00;;;;;;;10.13;6.53;;;;;;;7.85;85.08;101203.56;5041962;28;20048;-75
2022/10/15 03:51:26;;;;;;;13.35;6.18;;;;;;;7.89;85.58;101222.81;5043109;28;20111;-75
2022/10/15 03:53:52;;;;;;;9.65;6.18;;;;;;;7.24;84.92;101085.47;5053255;28;20040;-75
2022/10/15 03:56:18;;;;;;;9.50;5.55;;;;;;;7.17;85.04;101088.78;5066906;28;20032;-74
2022/10/15 03:58:43;;;;;;;11.65;5.53;;;;;;;7.12;85.74;101106.03;5061186;28;20468;-75
2022/10/15 04:01:14;;;;;;;18.40;7.18;;;;;;;7.67;85.96;101208.34;5026379;28;20072;-75
2022/10/15 04:03:39;;;;;;;12.00;7.43;;;;;;;7.85;85.82;101232.31;5024295;28;20116;-75
2022/10/15 04:06:06;;;;;;;16.98;5.90;;;;;;;7.57;86.17;101191.56;5017605;28;20040;-76
2022/10/15 04:08:31;;;;;;;8.40;6.03;;;;;;;7.78;85.61;101227.78;5042977;28;20081;-74
2022/10/15 04:10:58;;;;;;;12.13;6.50;;;;;;;7.01;85.74;101099.66;5032103;28;20438;-76
2022/10/15 04:13:24;;;;;;;10.43;6.25;;;;;;;6.93;86.39;101086.41;5041012;28;20092;-74
2022/10/15 04:15:49;;;;;;;31.92;6.70;;;;;;;7.21;85.71;101102.75;5026370;28;20037;-74
2022/10/15 04:18:15;;;;;;;12.43;6.53;;;;;;;7.64;86.02;101190.00;5035308;28;20720;-74
2022/10/15 04:20:41;;;;;;;11.88;6.93;;;;;;;7.56;85.78;101168.88;5023559;28;20041;-75
2022/10/15 04:23:10;;;;;;;9.20;6.65;;;;;;;6.80;86.19;101061.75;5039009;28;20046;-76
2022/10/15 04:25:36;;;;;;;11.07;6.72;;;;;;;7.61;86.57;101217.81;5026021;28;20083;-74
2022/10/15 04:28:02;;;;;;;10.80;6.03;;;;;;;7.42;86.40;101204.22;4996800;28;20041;-75
2022/10/15 04:30:27;;;;;;;13.80;6.00;;;;;;;7.58;86.72;101233.38;5011860;28;20063;-76
2022/10/15 04:32:53;;;;;;;11.00;6.50;;;;;;;6.81;86.56;101101.75;5027924;28;20029;-76
2022/10/15 04:35:19;;;;;;;12.38;6.10;;;;;;;6.98;86.38;101118.72;5038520;28;20095;-75
2022/10/15 04:37:45;;;;;;;16.85;8.07;;;;;;;7.54;86.29;101215.88;5030771;28;20397;-76
2022/10/15 04:40:11;;;;;;;13.43;6.78;;;;;;;6.85;86.15;101107.06;5025852;28;20117;-75
2022/10/15 04:42:37;;;;;;;12.65;8.18;;;;;;;7.15;86.56;101166.13;5027065;28;20029;-76
2022/10/15 04:45:03;;;;;;;10.52;6.60;;;;;;;7.55;86.24;101235.91;5041776;28;20079;-75
2022/10/15 04:47:28;;;;;;;19.08;8.95;;;;;;;7.00;86.27;101139.63;5035906;28;20045;-74
2022/10/15 04:49:54;;;;;;;18.05;10.30;;;;;;;7.59;86.15;101245.59;5043851;28;20735;-75
2022/10/15 04:52:19;;;;;;;12.75;7.60;;;;;;;7.61;86.72;101249.13;5063013;28;20040;-75
2022/10/15 04:54:45;;;;;;;16.02;9.38;;;;;;;7.53;86.30;101232.38;5050026;28;20041;-74
2022/10/15 04:57:10;;;;;;;14.27;8.43;;;;;;;6.92;86.17;101110.72;5049394;28;20170;-75
2022/10/15 04:59:36;;;;;;;34.22;7.28;;;;;;;7.61;86.04;101233.47;5048713;28;20048;-75
2022/10/15 05:02:01;;;;;;;14.20;6.32;;;;;;;7.31;85.36;101160.47;5052039;28;20041;-76
2022/10/15 05:04:27;;;;;;;13.10;9.13;;;;;;;6.98;86.09;101129.16;5043644;28;20148;-75
2022/10/15 05:06:52;;;;;;;15.40;8.35;;;;;;;7.10;85.91;101139.91;5046209;28;20073;-75
2022/10/15 05:09:18;;;;;;;20.10;8.82;;;;;;;7.67;86.05;101248.41;5030746;28;20037;-75
2022/10/15 05:11:43;;;;;;;30.23;8.57;;;;;;;7.82;85.51;101240.97;5049686;28;20118;-76
2022/10/15 05:14:08;;;;;;;12.95;8.32;;;;;;;7.01;85.63;101110.09;5028883;28;20492;-75
2022/10/15 05:16:34;;;;;;;16.10;7.43;;;;;;;7.03;85.22;101100.59;5047905;28;20547;-75
2022/10/15 05:19:05;;;;;;;12.68;7.40;;;;;;;7.40;84.99;101144.16;5037743;28;20036;-74
2022/10/15 05:21:32;;;;;;;17.10;8.80;;;;;;;7.35;84.48;101151.88;5047881;28;20033;-75
2022/10/15 05:23:58;;;;;;;12.30;7.68;;;;;;;7.27;84.58;101118.59;5044024;28;20041;-75
2022/10/15 05:26:25;;;;;;;13.05;7.07;;;;;;;7.44;84.29;101142.50;5029898;28;20653;-75
2022/10/15 05:28:51;;;;;;;17.73;7.85;;;;;;;7.51;83.97;101154.84;5031354;28;20064;-75
2022/10/15 05:31:19;;;;;;;22.90;8.23;;;;;;;7.20;84.22;101099.28;5039429;28;20481;-75
2022/10/15 05:33:50;;;;;;;9.75;7.95;;;;;;;7.26;84.46;101117.72;5030496;28;20068;-75
2022/10/15 05:36:23;;;;;;;10.75;7.80;;;;;;;8.12;84.62;101268.66;5047791;28;20134;-74
2022/10/15 05:38:57;;;;;;;14.73;7.57;;;;;;;8.20;84.30;101266.25;5038695;28;20046;-75
2022/10/15 05:41:24;;;;;;;22.80;7.90;;;;;;;8.28;83.77;101274.25;5027276;28;20041;-74
2022/10/15 05:43:51;;;;;;;12.52;7.35;;;;;;;7.67;83.46;101136.09;5028892;28;20056;-74
2022/10/15 05:46:18;;;;;;;12.25;8.73;;;;;;;8.33;82.73;101241.25;5047506;28;20504;-75
2022/10/15 05:48:47;;;;;;;9.70;7.25;;;;;;;7.74;82.06;101143.22;5039743;28;20069;-75
2022/10/15 05:51:13;;;;;;;18.05;9.07;;;;;;;8.57;82.05;101274.94;5023685;28;20074;-74
2022/10/15 05:53:39;;;;;;;12.90;8.70;;;;;;;8.76;81.47;101271.91;5047461;28;20037;-75
2022/10/15 05:56:07;;;;;;;11.20;8.40;;;;;;;8.63;81.08;101251.53;5022041;28;20112;-75
2022/10/15 05:58:33;;;;;;;18.52;11.45;;;;;;;7.96;81.04;101123.69;5032985;28;20421;-74
2022/10/15 06:01:01;;;;;;;18.38;9.25;;;;;;;8.17;80.71;101130.22;5046379;28;20041;-74
2022/10/15 06:03:28;;;;;;;14.45;8.05;;;;;;;8.32;80.11;101161.06;5032204;28;20210;-75
2022/10/15 06:05:53;;;;;;;11.18;7.05;;;;;;;9.18;80.44;101277.97;5028188;28;20396;-75
2022/10/15 06:08:19;;;;;;;9.85;6.80;;;;;;;9.05;79.64;101248.03;5031803;28;20054;-74
2022/10/15 06:10:46;;;;;;;10.07;7.25;;;;;;;8.96;79.60;101238.25;5039729;28;20048;-75
2022/10/15 06:13:12;;;;;;;12.57;7.80;;;;;;;9.34;79.58;101282.66;5015367;28;20041;-76
2022/10/15 06:15:44;;;;;;;16.90;9.57;;;;;;;9.37;78.89;101266.13;5038765;28;21093;-75
2022/10/15 06:18:14;;;;;;;16.17;9.05;;;;;;;9.30;79.13;101241.53;5046332;28;20124;-73
2022/10/15 06:20:40;;;;;;;14.35;9.27;;;;;;;9.65;78.18;101277.97;5026495;28;20056;-73
2022/10/15 06:23:06;;;;;;;11.73;9.68;;;;;;;9.16;77.50;101167.97;5047805;28;20045;-75
2022/10/15 06:25:32;;;;;;;13.48;10.45;;;;;;;9.87;77.22;101277.47;5028571;28;20145;-74
2022/10/15 06:28:03;;;;;;;15.77;9.82;;;;;;;9.54;76.52;101209.66;5037144;28;20068;-75
2022/10/15 06:30:29;;;;;;;13.55;8.48;;;;;;;10.04;76.62;101287.34;5027416;28;20095;-74
2022/10/15 06:32:55;;;;;;;27.45;9.02;;;;;;;10.31;75.40;101293.09;5028470;28;20037;-75
2022/10/15 06:35:22;;;;;;;19.33;8.98;;;;;;;10.23;75.18;101250.09;5040407;28;20140;-75
2022/10/15 06:37:48;;;;;;;18.13;8.90;;;;;;;9.84;74.24;101169.09;5028712;28;20081;-76
2022/10/15 06:40:14;;;;;;;19.10;12.93;;;;;;;10.65;72.57;101292.69;5040528;28;20081;-75
2022/10/15 06:42:40;;;;;;;18.08;11.40;;;;;;;10.70;72.15;101265.66;5040148;28;20139;-75
2022/10/15 06:45:08;;;;;;;12.57;11.20;;;;;;;10.39;71.63;101203.97;5041987;28;20040;-75
2022/10/15 06:47:40;;;;;;;12.65;8.85;;;;;;;10.43;70.84;101197.06;5040423;28;20540;-74
2022/10/15 06:50:06;;;;;;;13.00;7.88;;;;;;;10.30;70.31;101173.28;5043612;28;20502;-74
2022/10/15 06:52:32;;;;;;;14.10;7.05;;;;;;;11.18;70.82;101314.38;5045055;28;20045;-73
2022/10/15 06:54:58;;;;;;;9.70;7.05;;;;;;;11.34;70.03;101314.56;5039988;28;20079;-75
2022/10/15 06:57:26;;;;;;;11.25;6.15;;;;;;;10.67;69.23;101178.09;5032843;28;20476;-74
2022/10/15 06:59:52;;;;;;;12.43;4.82;;;;;;;11.43;68.56;101309.44;5047142;28;20025;-74
2022/10/15 07:02:18;;;;;;;10.43;5.45;;;;;;;11.46;68.86;101303.31;5025800;28;20037;-75
2022/10/15 07:04:45;;;;;;;14.35;6.10;;;;;;;11.18;68.38;101237.31;5046153;28;20045;-74
2022/10/15 07:07:12;;;;;;;8.82;5.45;;;;;;;11.55;68.28;101278.00;5045872;28;20465;-74
2022/10/15 07:09:37;;;;;;;8.45;5.57;;;;;;;11.69;68.46;101306.19;5045098;28;20069;-76
2022/10/15 07:12:04;;;;;;;11.88;4.68;;;;;;;11.19;68.17;101184.81;5045435;28;20035;-76
2022/10/15 07:14:29;;;;;;;15.07;5.45;;;;;;;12.02;67.64;101301.25;5043338;28;20040;-79
2022/10/15 07:16:57;;;;;;;8.98;4.85;;;;;;;11.46;67.06;101185.06;5045984;28;20194;-76
2022/10/15 07:19:22;;;;;;;8.05;4.35;;;;;;;11.46;66.84;101183.31;5041745;28;20045;-76
2022/10/15 07:21:48;;;;;;;9.68;4.95;;;;;;;11.04;66.46;101087.47;5046959;28;20488;-77
2022/10/15 07:24:13;;;;;;;10.35;5.30;;;;;;;11.70;66.80;101206.28;5047085;28;20029;-78
2022/10/15 07:26:39;;;;;;;10.27;4.85;;;;;;;12.12;67.09;101296.06;5040379;28;20787;-78
2022/10/15 07:29:04;;;;;;;10.18;5.43;;;;;;;12.46;66.79;101305.09;5040551;28;20094;-76
2022/10/15 07:31:30;;;;;;;11.73;4.75;;;;;;;12.53;67.08;101304.28;5040597;28;20079;-77
2022/10/15 07:33:55;;;;;;;11.15;6.32;;;;;;;12.71;66.80;101302.59;5014612;28;20144;-75
2022/10/15 07:36:21;;;;;;;13.70;6.60;;;;;;;12.63;66.99;101310.47;5053146;28;20055;-81
2022/10/15 07:38:46;;;;;;;11.95;6.25;;;;;;;12.46;67.03;101265.63;5061100;28;20419;-79
2022/10/15 07:41:12;;;;;;;7.60;5.15;;;;;;;12.45;66.97;101267.38;5072098;28;20036;-82
2022/10/15 07:43:38;;;;;;;18.55;5.95;;;;;;;12.11;67.19;101174.19;5080302;28;20041;-79
2022/10/15 07:46:04;;;;;;;12.75;6.25;;;;;;;12.52;66.60;101259.50;5048414;28;20047;-79
2022/10/15 07:48:30;;;;;;;10.23;4.85;;;;;;;12.33;65.97;101203.25;5048834;28;20133;-74
2022/10/15 07:51:02;;;;;;;5.43;4.05;;;;;;;12.49;65.48;101249.84;5072106;28;20028;-79
2022/10/15 07:53:28;;;;;;;8.93;4.13;;;;;;;12.78;65.93;101273.69;5088977;28;20051;-79
2022/10/15 07:55:57;;;;;;;16.13;5.63;;;;;;;12.92;66.15;101300.06;5067881;28;20421;-80
2022/10/15 07:58:23;;;;;;;13.68;5.45;;;;;;;13.19;65.75;101306.34;5066937;28;21009;-82
2022/10/15 08:00:48;;;;;;;10.90;5.30;;;;;;;12.72;65.62;101220.13;5065689;28;20049;-76
2022/10/15 08:03:14;;;;;;;9.07;5.13;;;;;;;13.30;65.44;101310.81;5053653;28;20033;-79
2022/10/15 08:05:39;;;;;;;8.20;4.55;;;;;;;13.23;65.13;101281.78;5057731;28;20822;-80
2022/10/15 08:08:05;;;;;;;9.77;4.95;;;;;;;12.55;65.20;101186.69;5060056;28;20102;-84
2022/10/15 08:10:30;;;;;;;7.43;4.53;;;;;;;13.17;65.26;101306.34;5085731;28;20040;-81
2022/10/15 08:12:56;;;;;;;11.05;4.60;;;;;;;13.07;65.77;101315.97;5066939;28;20094;-80
2022/10/15 08:15:21;;;;;;;12.20;4.40;;;;;;;12.61;65.18;101186.69;5058638;28;20033;-73
2022/10/15 08:17:47;;;;;;;17.48;4.82;;;;;;;13.37;64.92;101316.09;5061515;28;20072;-74
2022/10/15 08:20:14;;;;;;;9.23;3.90;;;;;;;13.05;65.12;101267.63;5066829;28;20435;-75
2022/10/15 08:22:39;;;;;;;8.68;4.40;;;;;;;12.78;64.27;101207.84;5064128;28;20052;-73
2022/10/15 08:25:05;;;;;;;18.42;4.95;;;;;;;13.37;63.11;101314.34;5051331;28;20045;-74
2022/10/15 08:27:30;;;;;;;9.98;4.57;;;;;;;13.69;62.62;101317.03;5077691;28;20536;-74
2022/10/15 08:29:56;;;;;;;8.65;4.57;;;;;;;13.62;62.47;101296.81;5069404;28;20387;-75
2022/10/15 08:32:21;;;;;;;11.60;6.38;;;;;;;13.81;62.53;101310.91;5058321;28;20131;-75
2022/10/15 08:34:47;;;;;;;8.63;4.65;;;;;;;13.72;62.47;101314.44;5066463;28;20060;-74
2022/10/15 08:37:12;;;;;;;13.13;5.47;;;;;;;13.14;62.50;101182.47;5050301;28;20037;-74
2022/10/15 08:39:38;;;;;;;14.32;7.68;;;;;;;13.78;62.76;101310.91;5071658;28;20040;-78
2022/10/15 08:42:11;;;;;;;12.50;5.03;;;;;;;13.22;62.97;101188.63;5070284;28;20368;-75
2022/10/15 08:44:50;;;;;;;14.23;6.07;;;;;;;14.06;62.08;101311.81;5062760;28;20075;-78
2022/10/15 08:47:35;;;;;;;12.15;7.30;;;;;;;14.14;61.84;101317.06;5068995;28;20609;-77
2022/10/15 08:50:37;;;;;;;14.98;6.50;;;;;;;14.10;60.76;101250.22;5068720;28;20159;-78
2022/10/15 08:53:03;;;;;;;13.63;7.22;;;;;;;13.60;61.56;101229.13;5042887;28;20044;-74
2022/10/15 08:55:37;;;;;;;20.77;7.28;;;;;;;14.19;61.10;101285.41;5059869;28;20458;-74
2022/10/15 08:58:12;;;;;;;15.00;7.45;;;;;;;14.27;60.73;101313.56;5063926;28;21831;-77
2022/10/15 09:00:56;;;;;;;14.27;7.05;;;;;;;14.25;60.67;101319.72;5062133;28;20048;-80
2022/10/15 09:03:30;;;;;;;14.95;7.75;;;;;;;14.19;61.25;101322.34;5066730;28;20040;-78
2022/10/15 09:06:01;;;;;;;10.73;5.75;;;;;;;14.32;61.46;101327.63;5060372;28;20032;-74
2022/10/15 09:08:55;;;;;;;9.63;4.47;;;;;;;14.19;61.58;101325.00;5050107;28;20464;-78
2022/10/15 09:11:21;;;;;;;;;;;;;;;14.15;60.21;101318.84;5052695;28;20049;-76
2022/10/15 09:13:47;;;;;;;10.43;4.50;;;;;;;13.49;60.84;101203.63;5049245;28;19969;-75
2022/10/15 09:16:20;;;;;;;14.02;4.70;;;;;;;14.25;60.87;101320.59;5062288;28;20040;-78
2022/10/15 09:18:51;;;;;;;11.32;4.57;;;;;;;13.99;61.65;101298.63;5055639;28;20102;-76
2022/10/15 09:21:18;;;;;;;16.15;4.22;;;;;;;13.47;61.56;101196.59;5057217;28;20040;-79
2022/10/15 09:23:44;;;;;;;11.77;5.13;;;;;;;14.17;61.64;101306.53;5051057;28;20120;-78
2022/10/15 09:26:59;;;;;;;11.00;5.43;;;;;;;14.22;62.03;101290.69;5060086;28;20101;-76
2022/10/15 09:29:35;;;;;;;16.98;5.28;;;;;;;14.36;60.65;101281.88;5064222;28;20060;-79
2022/10/15 09:32:18;;;;;;;9.15;5.47;;;;;;;14.30;60.93;101296.84;5054380;28;20044;-81
2022/10/15 09:35:02;;;;;;;15.05;6.10;;;;;;;14.60;60.24;101305.63;5055340;28;20040;-77
2022/10/15 09:37:35;;;;;;;12.27;6.60;;;;;;;14.57;60.04;101273.06;5057970;28;20037;-76
2022/10/15 09:40:27;;;;;;;12.10;7.03;;;;;;;14.74;59.32;101309.13;5051361;28;20071;-77
2022/10/15 09:42:55;;;;;;;11.63;6.95;;;;;;;14.41;60.14;101304.75;5046328;28;20081;-78
2022/10/15 09:45:23;;;;;;;11.35;6.53;;;;;;;14.32;59.57;101300.34;5041021;28;20041;-79
2022/10/15 09:47:49;;;;;;;9.65;6.35;;;;;;;14.30;59.69;101286.28;5033824;28;20041;-80
2022/10/15 09:50:14;;;;;;;12.45;5.70;;;;;;;13.69;60.09;101208.91;5039774;28;20051;-79
2022/10/15 09:53:05;;;;;;;9.20;5.10;;;;;;;14.43;59.94;101301.22;5047122;28;20033;-78
2022/10/15 09:55:42;;;;;;;10.43;5.35;;;;;;;13.77;59.95;101169.38;5058217;28;20064;-78
2022/10/15 09:58:27;;;;;;;9.48;6.47;;;;;;;14.39;59.95;101240.50;5047056;28;20128;-78
2022/10/15 10:01:02;;;;;;;14.00;6.07;;;;;;;13.88;59.18;101177.25;5026677;28;20132;-79
2022/10/15 10:03:30;;;;;;;13.35;6.03;;;;;;;13.93;59.45;101170.22;5026781;28;20021;-77
2022/10/15 10:06:02;;;;;;;14.65;6.45;;;;;;;14.04;59.29;101160.50;5045679;28;20040;-79
2022/10/15 10:08:34;;;;;;;6.68;4.72;;;;;;;14.68;59.46;101293.28;5048526;28;20734;-77
2022/10/15 10:11:06;;;;;;;12.40;5.90;;;;;;;14.70;59.73;101292.41;5030111;28;20044;-76
2022/10/15 10:13:39;;;;;;;11.82;5.82;;;;;;;14.62;58.58;101214.06;5047937;28;20067;-79
2022/10/15 10:16:07;;;;;;;;;;;;;;;14.97;59.21;101285.25;5032627;28;20052;-77
2022/10/15 10:18:33;;;;;;;9.88;5.00;;;;;;;14.65;58.50;101253.66;5060237;28;19920;-77
2022/10/15 10:21:00;;;;;;;9.02;6.40;;;;;;;15.04;58.80;101270.25;5030036;28;20373;-79
2022/10/15 10:23:35;;;;;;;13.30;6.45;;;;;;;14.39;57.83;101154.25;5058970;28;20048;-78
2022/10/15 10:26:06;;;;;;;13.93;6.05;;;;;;;15.29;58.34;101282.47;5039654;28;20049;-77
2022/10/15 10:28:55;;;;;;;12.88;6.00;;;;;;;15.29;58.35;101282.47;5037456;28;20068;-78
2022/10/15 10:31:30;;;;;;;10.98;6.45;;;;;;;14.62;57.85;101183.25;5018439;28;20075;-79
2022/10/15 10:34:00;;;;;;;9.23;5.68;;;;;;;14.76;56.50;101160.28;5046587;28;20051;-78
2022/10/15 10:36:27;;;;;;;11.18;6.32;;;;;;;15.42;56.58;101259.47;5047035;28;20068;-79
2022/10/15 10:39:20;;;;;;;8.70;5.18;;;;;;;15.46;56.43;101279.72;5058973;28;20043;-79
2022/10/15 10:41:57;;;;;;;12.30;6.00;;;;;;;14.99;55.91;101154.84;5048357;28;20137;-78
2022/10/15 10:44:33;;;;;;;10.35;5.68;;;;;;;15.84;56.02;101265.38;5064241;28;20037;-77
2022/10/15 10:47:07;;;;;;;11.13;6.13;;;;;;;15.22;57.36;101272.81;5062534;28;20389;-76
2022/10/15 10:49:36;;;;;;;10.32;5.35;;;;;;;14.46;57.55;101149.81;5051133;28;20045;-79
2022/10/15 10:52:02;;;;;;;9.10;4.97;;;;;;;14.33;58.27;101152.53;5050990;28;20044;-79
2022/10/15 10:54:36;;;;;;;11.32;5.43;;;;;;;14.62;57.42;101161.25;5067945;28;20475;-79
2022/10/15 10:57:03;;;;;;;9.30;5.90;;;;;;;15.56;56.46;101254.97;5068657;28;20097;-78
2022/10/15 10:59:43;;;;;;;8.48;5.63;;;;;;;15.50;57.11;101254.13;5065258;28;20464;-77
2022/10/15 11:02:11;;;;;;;9.82;5.38;;;;;;;15.04;56.98;101148.69;5067841;28;20131;-77
2022/10/15 11:04:38;;;;;;;19.40;7.95;;;;;;;14.97;56.65;101179.53;5067567;28;20048;-79
2022/10/15 11:07:08;;;;;;;13.88;6.50;;;;;;;15.30;57.69;101255.13;5067787;28;20056;-77
2022/10/15 11:10:02;;;;;;;11.90;6.28;;;;;;;15.49;56.75;101252.38;5084105;28;20028;-80
2022/10/15 11:12:34;;;;;;;14.30;6.18;;;;;;;15.47;56.93;101244.44;5087726;28;20059;-80
2022/10/15 11:15:31;;;;;;;9.02;5.75;;;;;;;15.59;56.22;101241.72;5062991;28;20057;-78
2022/10/15 11:18:44;;;;;;;10.35;5.72;;;;;;;15.84;55.46;101241.56;5013360;28;20033;-78
2022/10/15 11:21:24;;;;;;;10.90;6.18;;;;;;;16.26;55.75;101226.16;5047314;28;20047;-77
2022/10/15 11:24:12;;;;;;;13.80;6.30;;;;;;;15.08;56.33;101110.78;5054525;28;20063;-76
2022/10/15 11:27:15;;;;;;;9.75;5.10;;;;;;;15.47;56.74;101235.63;5067616;28;20061;-76
2022/10/15 11:30:22;;;;;;;9.57;5.55;;;;;;;15.64;55.89;101231.13;5082255;28;20094;-78
2022/10/15 11:33:00;;;;;;;10.73;6.60;;;;;;;15.52;56.80;101236.47;5028962;28;20041;-78
2022/10/15 11:35:41;;;;;;;10.30;6.90;;;;;;;14.66;56.79;101132.16;5066482;28;20040;-79
2022/10/15 11:38:34;;;;;;;9.57;5.30;;;;;;;15.27;57.47;101233.13;5065519;28;20040;-79